Time;durP1;ratioP1;P1;durP2;ratioP2;P2;SDS_P1;SDS_P2;PMS_P1;PMS_P2;Temp;Humidity;BMP_temperature;BMP_pressure;BME280_temperature;BME280_humidity;BME280_pressure;Samples;Min_cycle;Max_cycle;Signal;HPM_P1;HPM_P2
2023/06/05 00:01:52;;;;;;;4.93;2.73;;;13.50;71.00;;;;;;5071855;28;20447;-68
2023/06/05 00:04:20;;;;;;;4.87;3.30;;;13.60;68.90;;;;;;5071010;28;20982;-67
2023/06/05 00:06:50;;;;;;;3.60;3.00;;;13.60;70.50;;;;;;5071376;28;20500;-68
2023/06/05 00:09:18;;;;;;;3.80;2.90;;;13.40;71.10;;;;;;5071344;28;20465;-67
2023/06/05 00:11:46;;;;;;;3.30;2.60;;;13.30;71.40;;;;;;5071226;28;20446;-67
2023/06/05 00:14:16;;;;;;;3.03;2.50;;;13.20;72.50;;;;;;5071164;28;20477;-67
2023/06/05 00:16:44;;;;;;;6.83;3.23;;;13.10;73.20;;;;;;5070744;28;21103;-67
2023/06/05 00:19:12;;;;;;;3.50;3.17;;;12.90;71.20;;;;;;5070767;28;20467;-67
2023/06/05 00:21:40;;;;;;;3.80;2.67;;;12.70;75.40;;;;;;5071322;28;20435;-67
2023/06/05 00:24:08;;;;;;;6.13;2.90;;;12.90;73.90;;;;;;5070818;28;20477;-67
2023/06/05 00:26:36;;;;;;;7.83;2.50;;;12.80;70.00;;;;;;5070909;28;20538;-67
2023/06/05 00:29:04;;;;;;;4.00;2.87;;;12.80;76.00;;;;;;5071114;28;20558;-67
2023/06/05 00:31:34;;;;;;;2.93;2.50;;;12.70;76.00;;;;;;5071287;28;20448;-68
2023/06/05 00:34:02;;;;;;;3.33;3.03;;;12.60;75.10;;;;;;5070823;28;20515;-68
2023/06/05 00:36:32;;;;;;;3.27;2.90;;;12.60;78.90;;;;;;5071020;28;20506;-68
2023/06/05 00:39:00;;;;;;;3.10;2.80;;;12.60;76.80;;;;;;5070611;28;20470;-67
2023/06/05 00:41:28;;;;;;;3.67;3.27;;;12.50;74.40;;;;;;5070641;28;20457;-67
2023/06/05 00:43:56;;;;;;;3.33;3.00;;;12.50;74.80;;;;;;5070310;28;20447;-68
2023/06/05 00:46:24;;;;;;;3.90;2.60;;;12.40;79.20;;;;;;5070841;28;20457;-67
2023/06/05 00:48:54;;;;;;;4.37;3.00;;;12.50;80.00;;;;;;5070439;28;20487;-67
2023/06/05 00:51:22;;;;;;;5.70;3.17;;;12.40;76.20;;;;;;5070534;28;20446;-67
2023/06/05 00:53:51;;;;;;;4.10;3.13;;;12.40;74.10;;;;;;5070112;28;20504;-67
2023/06/05 00:56:20;;;;;;;4.40;3.30;;;12.40;75.20;;;;;;5070465;28;20478;-67
2023/06/05 00:58:49;;;;;;;3.50;2.80;;;12.40;74.50;;;;;;5070356;28;20894;-68
2023/06/05 01:01:20;;;;;;;3.07;2.70;;;12.40;74.00;;;;;;5070354;28;20444;-67
2023/06/05 01:03:48;;;;;;;5.60;3.30;;;12.40;74.20;;;;;;5069859;28;20815;-68
2023/06/05 01:06:19;;;;;;;3.43;3.13;;;12.30;82.80;;;;;;5070211;28;20437;-67
2023/06/05 01:08:48;;;;;;;5.30;2.80;;;12.40;82.40;;;;;;5070348;28;20521;-67
2023/06/05 01:11:22;;;;;;;3.50;2.73;;;12.30;79.60;;;;;;5070395;28;20438;-67
2023/06/05 01:13:56;;;;;;;5.30;3.10;;;12.20;80.50;;;;;;5069967;28;20456;-67
2023/06/05 01:16:30;;;;;;;3.20;2.90;;;12.10;83.20;;;;;;5069938;28;20523;-67
2023/06/05 01:19:02;;;;;;;2.67;2.47;;;12.10;84.50;;;;;;5070219;28;20496;-68
2023/06/05 01:21:32;;;;;;;4.50;3.00;;;12.00;84.40;;;;;;5070164;28;20475;-68
2023/06/05 01:24:02;;;;;;;4.43;3.20;;;12.00;88.20;;;;;;5070090;28;20448;-67
2023/06/05 01:26:37;;;;;;;4.00;2.73;;;11.90;86.00;;;;;;5070034;28;20513;-67
2023/06/05 01:29:11;;;;;;;4.27;2.80;;;11.90;86.50;;;;;;5069618;28;20456;-67
2023/06/05 01:31:42;;;;;;;3.73;3.07;;;11.90;81.30;;;;;;5069979;28;20433;-67
2023/06/05 01:34:12;;;;;;;4.13;2.80;;;11.90;80.50;;;;;;5069700;28;20449;-67
2023/06/05 01:36:41;;;;;;;3.87;2.57;;;11.90;79.70;;;;;;5069664;28;20998;-67
2023/06/05 01:39:12;;;;;;;3.47;2.77;;;12.00;83.10;;;;;;5069923;28;20462;-67
2023/06/05 01:41:41;;;;;;;5.00;3.80;;;12.10;79.90;;;;;;5069670;28;21088;-67
2023/06/05 01:44:12;;;;;;;3.77;3.20;;;12.00;80.00;;;;;;5069616;28;20464;-67
2023/06/05 01:46:40;;;;;;;4.77;2.90;;;11.90;80.50;;;;;;5069508;28;21012;-67
2023/06/05 01:49:09;;;;;;;3.67;2.90;;;11.90;87.60;;;;;;5069687;28;21054;-67
2023/06/05 01:51:37;;;;;;;4.03;3.03;;;11.80;90.20;;;;;;5069787;28;20519;-67
2023/06/05 01:54:05;;;;;;;3.57;3.10;;;11.80;83.00;;;;;;5069136;28;20481;-67
2023/06/05 01:56:36;;;;;;;4.87;2.90;;;11.80;83.00;;;;;;5069694;28;20482;-67
2023/06/05 01:59:06;;;;;;;4.40;3.43;;;11.70;82.90;;;;;;5069550;28;20456;-68
2023/06/05 02:01:35;;;;;;;4.20;2.80;;;11.60;83.20;;;;;;5069419;28;20871;-68
2023/06/05 02:04:05;;;;;;;6.50;4.00;;;11.50;83.10;;;;;;5069313;28;20456;-67
2023/06/05 02:06:41;;;;;;;3.23;2.93;;;11.60;83.10;;;;;;5069521;28;20928;-67
2023/06/05 02:09:12;;;;;;;3.63;3.03;;;11.60;82.50;;;;;;5069608;28;20474;-67
2023/06/05 02:11:45;;;;;;;9.13;3.57;;;11.60;82.40;;;;;;5069481;28;20495;-68
2023/06/05 02:14:13;;;;;;;5.33;3.20;;;11.60;82.50;;;;;;5069290;28;20925;-68
2023/06/05 02:16:41;;;;;;;4.10;3.27;;;11.60;90.20;;;;;;5069230;28;20464;-67
2023/06/05 02:19:10;;;;;;;9.30;3.97;;;11.60;90.00;;;;;;5069643;28;20869;-68
2023/06/05 02:21:39;;;;;;;3.73;2.83;;;11.50;87.90;;;;;;5069794;28;20446;-67
2023/06/05 02:24:07;;;;;;;4.83;3.67;;;11.40;88.70;;;;;;5069187;28;20820;-67
2023/06/05 02:26:36;;;;;;;4.80;3.57;;;11.40;86.20;;;;;;5069333;28;20820;-67
2023/06/05 02:29:05;;;;;;;3.97;2.93;;;11.30;87.40;;;;;;5069272;28;20528;-67
2023/06/05 02:31:33;;;;;;;4.87;3.40;;;11.30;86.50;;;;;;5069285;28;20441;-67
2023/06/05 02:34:01;;;;;;;3.97;3.03;;;11.20;87.30;;;;;;5069141;28;20778;-67
2023/06/05 02:36:32;;;;;;;4.43;3.40;;;11.20;91.20;;;;;;5069338;28;20525;-67
2023/06/05 02:39:01;;;;;;;4.00;2.90;;;11.10;91.80;;;;;;5069382;28;20527;-67
2023/06/05 02:41:29;;;;;;;4.87;4.00;;;11.20;91.30;;;;;;5071411;28;20969;-68
2023/06/05 02:43:59;;;;;;;4.77;3.17;;;11.20;92.00;;;;;;5072743;28;20863;-68
2023/06/05 02:46:29;;;;;;;3.53;3.20;;;11.10;91.30;;;;;;5073419;28;20435;-67
2023/06/05 02:48:57;;;;;;;7.00;3.23;;;11.10;90.40;;;;;;5073313;28;20463;-67
2023/06/05 02:51:24;;;;;;;4.40;3.03;;;11.00;90.50;;;;;;5073345;28;20531;-68
2023/06/05 02:53:53;;;;;;;6.43;3.17;;;10.90;90.40;;;;;;5073040;28;20457;-67
2023/06/05 02:56:21;;;;;;;6.13;3.50;;;10.90;90.50;;;;;;5073110;28;20596;-67
2023/06/05 02:58:49;;;;;;;4.13;3.70;;;10.90;90.50;;;;;;5073001;28;20463;-67
2023/06/05 03:01:18;;;;;;;5.13;3.40;;;10.90;90.20;;;;;;5072917;28;20706;-67
2023/06/05 03:03:48;;;;;;;3.83;3.13;;;10.80;90.30;;;;;;5072721;28;20442;-67
2023/06/05 03:06:18;;;;;;;4.23;3.30;;;10.80;90.40;;;;;;5072944;28;20466;-67
2023/06/05 03:08:46;;;;;;;3.77;3.37;;;10.70;90.50;;;;;;5072619;28;20527;-67
2023/06/05 03:11:14;;;;;;;3.57;3.20;;;10.70;90.60;;;;;;5072866;28;20902;-67
2023/06/05 03:13:41;;;;;;;4.10;3.30;;;10.70;90.60;;;;;;5072509;28;20439;-67
2023/06/05 03:16:10;;;;;;;3.90;3.40;;;10.60;90.70;;;;;;5072764;28;20442;-67
2023/06/05 03:18:38;;;;;;;5.80;3.40;;;10.60;93.20;;;;;;5072946;28;20482;-67
2023/06/05 03:21:10;;;;;;;4.60;3.60;;;10.70;93.60;;;;;;5072559;28;20481;-67
2023/06/05 03:23:38;;;;;;;4.30;3.50;;;10.60;93.50;;;;;;5072181;28;20526;-67
2023/06/05 03:26:06;;;;;;;4.40;2.90;;;10.50;94.00;;;;;;5072710;28;21031;-67
2023/06/05 03:28:34;;;;;;;6.50;3.27;;;10.50;92.20;;;;;;5072928;28;20433;-66
2023/06/05 03:31:02;;;;;;;6.30;3.40;;;10.60;91.80;;;;;;5072486;28;20436;-67
2023/06/05 03:33:30;;;;;;;5.10;3.53;;;10.60;91.40;;;;;;5072383;28;20439;-67
2023/06/05 03:35:57;;;;;;;3.37;2.97;;;10.60;94.10;;;;;;5072319;28;20437;-67
2023/06/05 03:38:27;;;;;;;3.90;3.17;;;10.60;93.80;;;;;;5072495;28;20489;-67
2023/06/05 03:40:55;;;;;;;4.53;4.13;;;10.70;94.10;;;;;;5072271;28;21129;-67
2023/06/05 03:43:24;;;;;;;5.70;3.70;;;10.60;95.30;;;;;;5071892;28;20481;-67
2023/06/05 03:45:53;;;;;;;4.97;3.67;;;10.60;95.70;;;;;;5072328;28;20450;-67
2023/06/05 03:48:21;;;;;;;6.20;4.13;;;10.60;93.50;;;;;;5071769;28;20439;-67
2023/06/05 03:50:51;;;;;;;4.73;3.73;;;10.60;94.40;;;;;;5071695;28;20854;-67
2023/06/05 03:53:19;;;;;;;3.80;3.40;;;10.60;94.20;;;;;;5071297;28;20990;-67
2023/06/05 03:55:49;;;;;;;7.40;3.73;;;10.50;93.60;;;;;;5071829;28;20855;-67
2023/06/05 03:58:19;;;;;;;3.40;2.77;;;10.50;92.50;;;;;;5071617;28;20491;-67
2023/06/05 04:00:49;;;;;;;4.10;3.70;;;10.50;92.40;;;;;;5071424;28;20438;-67
2023/06/05 04:03:18;;;;;;;5.53;3.40;;;10.50;95.00;;;;;;5071138;28;20514;-67
2023/06/05 04:05:46;;;;;;;3.73;3.40;;;10.60;95.20;;;;;;5071620;28;20439;-67
2023/06/05 04:08:14;;;;;;;3.40;3.10;;;10.60;92.90;;;;;;5071222;28;20489;-67
2023/06/05 04:10:42;;;;;;;5.80;3.50;;;10.70;93.20;;;;;;5071413;28;20554;-68
2023/06/05 04:13:12;;;;;;;6.10;3.90;;;10.80;94.00;;;;;;5070875;28;21010;-67
2023/06/05 04:15:40;;;;;;;5.33;3.70;;;10.90;94.50;;;;;;5071175;28;20480;-67
2023/06/05 04:18:07;;;;;;;4.30;3.53;;;10.90;94.80;;;;;;5071149;28;20506;-68
2023/06/05 04:20:35;;;;;;;4.80;3.17;;;11.00;94.20;;;;;;5071308;28;20830;-68
2023/06/05 04:23:03;;;;;;;4.17;3.40;;;11.00;94.40;;;;;;5070803;28;20500;-67
2023/06/05 04:25:31;;;;;;;5.03;4.50;;;11.20;95.10;;;;;;5071122;28;20931;-67
2023/06/05 04:27:59;;;;;;;4.73;4.20;;;11.30;95.00;;;;;;5070837;28;20428;-67
2023/06/05 04:30:29;;;;;;;7.00;4.73;;;11.30;94.90;;;;;;5071050;28;20473;-68
2023/06/05 04:32:57;;;;;;;5.03;3.87;;;11.30;95.40;;;;;;5070618;28;20443;-68
2023/06/05 04:35:26;;;;;;;4.80;4.40;;;11.30;95.20;;;;;;5070909;28;20950;-68
2023/06/05 04:37:56;;;;;;;5.80;4.67;;;11.40;95.20;;;;;;5070961;28;21065;-67
2023/06/05 04:40:24;;;;;;;4.57;4.17;;;11.60;95.30;;;;;;5070687;28;20460;-68
2023/06/05 04:42:54;;;;;;;5.77;5.27;;;11.50;95.20;;;;;;5070272;28;20524;-67
2023/06/05 04:45:22;;;;;;;5.30;4.80;;;11.70;94.70;;;;;;5070606;28;20947;-68
2023/06/05 04:47:51;;;;;;;5.40;4.57;;;11.70;93.90;;;;;;5070896;28;20863;-67
2023/06/05 04:50:25;;;;;;;7.67;3.73;;;11.80;95.50;;;;;;5070519;28;20490;-68
2023/06/05 04:52:54;;;;;;;5.70;3.77;;;11.90;94.50;;;;;;5070305;28;20442;-68
2023/06/05 04:55:22;;;;;;;5.43;4.07;;;12.00;94.40;;;;;;5070495;28;20452;-68
2023/06/05 04:57:51;;;;;;;4.00;3.20;;;12.00;94.00;;;;;;5070932;28;20513;-68
2023/06/05 05:00:19;;;;;;;4.53;4.10;;;12.10;93.50;;;;;;5070664;28;20548;-67
2023/06/05 05:02:47;;;;;;;4.57;3.83;;;12.30;93.60;;;;;;5070405;28;20570;-67
2023/06/05 05:05:17;;;;;;;5.00;4.10;;;12.30;93.50;;;;;;5070434;28;20443;-67
2023/06/05 05:07:45;;;;;;;6.23;4.53;;;12.40;92.40;;;;;;5071683;28;20488;-67
2023/06/05 05:10:15;;;;;;;10.00;4.50;;;12.50;92.80;;;;;;5070801;28;20469;-67
2023/06/05 05:12:43;;;;;;;4.10;3.77;;;12.50;92.30;;;;;;5070403;28;20535;-68
2023/06/05 05:15:11;;;;;;;4.60;3.83;;;12.50;92.70;;;;;;5070598;28;20446;-67
2023/06/05 05:17:39;;;;;;;5.40;4.20;;;12.50;93.60;;;;;;5070403;28;20592;-67
2023/06/05 05:20:08;;;;;;;5.93;3.83;;;12.80;93.10;;;;;;5070373;28;20462;-67
2023/06/05 05:22:38;;;;;;;7.00;3.90;;;12.80;92.90;;;;;;5070018;28;20480;-68
2023/06/05 05:25:07;;;;;;;4.30;3.73;;;12.90;92.90;;;;;;5070277;28;20448;-68
2023/06/05 05:27:35;;;;;;;3.83;3.43;;;13.00;90.00;;;;;;5070329;28;20878;-67
2023/06/05 05:30:04;;;;;;;4.53;3.70;;;13.10;87.20;;;;;;5069780;28;20504;-67
2023/06/05 05:32:32;;;;;;;5.10;3.43;;;13.20;90.50;;;;;;5069985;28;20534;-67
2023/06/05 05:35:00;;;;;;;6.60;3.53;;;13.20;87.40;;;;;;5070132;28;20435;-66
2023/06/05 05:37:28;;;;;;;5.10;3.77;;;13.30;90.20;;;;;;5069929;28;20984;-67
2023/06/05 05:39:57;;;;;;;8.37;3.30;;;13.50;90.00;;;;;;5069782;28;20568;-68
2023/06/05 05:42:25;;;;;;;5.00;3.63;;;13.60;80.10;;;;;;5069684;28;20531;-68
2023/06/05 05:44:53;;;;;;;6.43;3.53;;;13.80;80.50;;;;;;5070047;28;20871;-68
2023/06/05 05:47:21;;;;;;;5.40;3.70;;;14.00;78.70;;;;;;5069810;28;20447;-67
2023/06/05 05:49:49;;;;;;;6.80;3.80;;;14.10;80.70;;;;;;5069869;28;20470;-68
2023/06/05 05:52:20;;;;;;;5.17;3.70;;;14.20;84.40;;;;;;5069768;28;20452;-68
2023/06/05 05:54:48;;;;;;;5.40;3.33;;;14.20;85.70;;;;;;5069449;28;20508;-65
2023/06/05 05:57:17;;;;;;;6.67;4.67;;;14.40;86.90;;;;;;5069540;28;20442;-68
2023/06/05 05:59:45;;;;;;;4.70;3.80;;;14.50;87.40;;;;;;5069503;28;20482;-68
2023/06/05 06:02:13;;;;;;;6.47;4.47;;;14.60;87.10;;;;;;5069657;28;20458;-68
2023/06/05 06:04:43;;;;;;;6.03;3.70;;;14.70;87.50;;;;;;5069673;28;20439;-68
2023/06/05 06:07:12;;;;;;;3.83;3.43;;;14.80;80.90;;;;;;5069693;28;20444;-68
2023/06/05 06:09:40;;;;;;;7.30;3.90;;;14.80;82.00;;;;;;5069654;28;20470;-68
2023/06/05 06:12:10;;;;;;;9.10;4.30;;;15.00;75.50;;;;;;5069466;28;20827;-68
2023/06/05 06:14:39;;;;;;;9.10;4.03;;;15.20;74.00;;;;;;5069341;28;20439;-68
2023/06/05 06:17:10;;;;;;;9.43;4.93;;;15.30;73.90;;;;;;5072838;28;20849;-68
2023/06/05 06:19:38;;;;;;;6.77;3.67;;;15.50;74.20;;;;;;5073539;28;20574;-68
2023/06/05 06:22:11;;;;;;;5.47;3.87;;;15.50;76.40;;;;;;5073520;28;20542;-68
2023/06/05 06:24:40;;;;;;;8.83;4.03;;;15.70;74.90;;;;;;5073150;28;20961;-68
2023/06/05 06:27:10;;;;;;;5.47;4.17;;;15.70;74.80;;;;;;5073229;28;21004;-68
2023/06/05 06:29:59;;;;;;;4.50;4.10;;;15.80;76.70;;;;;;5073391;28;20463;-68
2023/06/05 06:32:27;;;;;;;5.30;3.73;;;16.00;74.60;;;;;;5072854;28;21323;-68
2023/06/05 06:34:56;;;;;;;9.77;4.40;;;16.00;75.70;;;;;;5073332;28;20434;-68
2023/06/05 06:37:24;;;;;;;6.13;3.80;;;16.10;74.60;;;;;;5073080;28;20447;-68
2023/06/05 06:39:53;;;;;;;5.57;3.60;;;16.20;71.20;;;;;;5073103;28;20547;-69
2023/06/05 06:42:21;;;;;;;4.03;3.63;;;16.30;72.80;;;;;;5072892;28;20443;-69
2023/06/05 06:44:55;;;;;;;4.30;3.50;;;16.50;69.90;;;;;;5073259;28;20447;-68
2023/06/05 06:47:25;;;;;;;9.20;4.20;;;16.70;71.80;;;;;;5073056;28;20439;-68
2023/06/05 06:49:53;;;;;;;7.63;3.63;;;16.90;67.50;;;;;;5072767;28;20466;-68
2023/06/05 06:52:21;;;;;;;3.83;3.43;;;16.90;67.60;;;;;;5072925;28;20530;-68
2023/06/05 06:54:53;;;;;;;5.30;3.70;;;17.00;69.20;;;;;;5072769;28;20513;-69
2023/06/05 06:57:21;;;;;;;4.87;3.40;;;17.10;68.70;;;;;;5073075;28;20463;-69
2023/06/05 06:59:48;;;;;;;5.80;3.37;;;17.20;66.10;;;;;;5072834;28;20479;-68
2023/06/05 07:02:19;;;;;;;3.90;3.50;;;17.30;64.90;;;;;;5072758;28;20504;-68
2023/06/05 07:04:49;;;;;;;3.97;3.47;;;17.40;65.40;;;;;;5072608;28;20451;-67
2023/06/05 07:07:18;;;;;;;4.07;3.00;;;17.60;62.00;;;;;;5072610;28;20450;-68
2023/06/05 07:09:47;;;;;;;9.20;3.20;;;17.70;61.70;;;;;;5073404;28;20487;-68
2023/06/05 07:12:17;;;;;;;5.30;3.30;;;17.80;57.50;;;;;;5072575;28;20446;-69
2023/06/05 07:14:44;;;;;;;6.80;3.47;;;17.80;56.80;;;;;;5072198;28;20450;-68
2023/06/05 07:17:13;;;;;;;6.50;4.00;;;17.90;58.70;;;;;;5072787;28;20550;-68
2023/06/05 07:19:41;;;;;;;6.00;3.47;;;17.90;58.90;;;;;;5072506;28;20514;-68
2023/06/05 07:22:11;;;;;;;4.40;4.00;;;18.00;58.80;;;;;;5072683;28;20530;-67
2023/06/05 07:24:40;;;;;;;5.77;3.50;;;18.30;55.90;;;;;;5072016;28;20542;-68
2023/06/05 07:27:08;;;;;;;5.97;3.33;;;18.30;55.90;;;;;;5072178;28;20496;-68
2023/06/05 07:29:36;;;;;;;6.80;3.40;;;18.40;56.70;;;;;;5072261;28;20470;-68
2023/06/05 07:32:06;;;;;;;6.30;3.47;;;18.50;58.50;;;;;;5072230;28;21143;-68
2023/06/05 07:34:35;;;;;;;4.23;3.77;;;18.70;58.90;;;;;;5071962;28;21158;-69
2023/06/05 07:37:03;;;;;;;5.00;3.60;;;18.80;56.30;;;;;;5072338;28;20504;-68
2023/06/05 07:39:33;;;;;;;5.00;3.70;;;19.00;57.30;;;;;;5072008;28;20479;-68
2023/06/05 07:42:01;;;;;;;5.33;4.17;;;19.20;57.10;;;;;;5071818;28;20501;-69
2023/06/05 07:44:29;;;;;;;7.63;4.40;;;19.30;57.10;;;;;;5071798;28;20475;-69
2023/06/05 07:46:57;;;;;;;6.27;4.17;;;19.50;57.40;;;;;;5072011;28;20522;-69
2023/06/05 07:49:25;;;;;;;4.50;4.00;;;19.70;55.50;;;;;;5071950;28;21209;-68
2023/06/05 07:51:53;;;;;;;4.50;4.10;;;19.70;57.00;;;;;;5072113;28;20850;-68
2023/06/05 07:54:22;;;;;;;7.40;4.33;;;19.90;56.90;;;;;;5071465;28;20494;-69
2023/06/05 07:56:51;;;;;;;7.53;5.07;;;20.00;55.20;;;;;;5071889;28;20435;-68
2023/06/05 07:59:24;;;;;;;6.20;4.80;;;20.20;55.50;;;;;;5071498;28;20511;-68
2023/06/05 08:01:53;;;;;;;6.63;4.50;;;20.20;55.20;;;;;;5071032;28;20470;-67
2023/06/05 08:04:24;;;;;;;5.93;4.20;;;20.10;56.40;;;;;;5071521;28;20204;-68
2023/06/05 08:06:53;;;;;;;4.57;4.17;;;20.30;57.70;;;;;;5071669;28;20447;-68
2023/06/05 08:09:21;;;;;;;6.23;4.40;;;20.50;57.10;;;;;;5071585;28;20452;-68
2023/06/05 08:11:49;;;;;;;5.23;4.33;;;20.70;56.70;;;;;;5071420;28;20443;-68
2023/06/05 08:14:18;;;;;;;6.57;4.50;;;20.80;56.00;;;;;;5071039;28;20443;-67
2023/06/05 08:16:46;;;;;;;5.63;4.80;;;21.00;56.30;;;;;;5071314;28;20435;-68
2023/06/05 08:19:14;;;;;;;6.60;4.00;;;21.20;55.70;;;;;;5071077;28;20527;-68
2023/06/05 08:21:42;;;;;;;5.63;5.03;;;21.10;56.50;;;;;;5071046;28;20443;-69
2023/06/05 08:24:11;;;;;;;6.13;4.57;;;21.00;56.40;;;;;;5071086;28;20446;-69
2023/06/05 08:26:38;;;;;;;5.40;4.43;;;21.00;57.20;;;;;;5071045;28;21010;-68
2023/06/05 08:29:07;;;;;;;4.60;4.03;;;20.90;55.60;;;;;;5070970;28;20467;-69
2023/06/05 08:31:36;;;;;;;4.27;3.87;;;21.00;57.20;;;;;;5070816;28;20937;-65
2023/06/05 08:34:08;;;;;;;6.10;4.87;;;21.30;56.30;;;;;;5070627;28;20794;-68
2023/06/05 08:36:39;;;;;;;5.80;4.73;;;21.60;54.50;;;;;;5070821;28;20550;-67
2023/06/05 08:39:07;;;;;;;7.60;5.00;;;21.70;55.80;;;;;;5069909;28;20455;-68
2023/06/05 08:41:36;;;;;;;7.47;4.70;;;21.70;55.70;;;;;;5070907;28;20447;-68
2023/06/05 08:44:04;;;;;;;5.10;4.23;;;21.70;54.90;;;;;;5070454;28;21036;-68
2023/06/05 08:46:34;;;;;;;4.87;4.47;;;21.90;56.40;;;;;;5070747;28;20475;-68
2023/06/05 08:49:09;;;;;;;5.90;5.10;;;22.20;57.70;;;;;;5070603;28;20513;-68
2023/06/05 08:51:39;;;;;;;6.20;5.43;;;22.30;55.90;;;;;;5070824;28;20481;-68
2023/06/05 08:54:13;;;;;;;7.60;4.80;;;22.50;56.40;;;;;;5070471;28;20554;-68
2023/06/05 08:56:43;;;;;;;5.40;4.70;;;22.80;55.40;;;;;;5071706;28;20442;-68
2023/06/05 08:59:14;;;;;;;7.27;4.47;;;22.90;55.90;;;;;;5070432;28;20460;-68
2023/06/05 09:01:43;;;;;;;6.13;5.63;;;23.20;54.70;;;;;;5070595;28;20440;-68
2023/06/05 09:04:13;;;;;;;8.73;5.57;;;23.10;53.60;;;;;;5070057;28;20482;-68
2023/06/05 09:06:45;;;;;;;7.40;5.20;;;23.20;54.80;;;;;;5070340;28;20454;-68
2023/06/05 09:09:14;;;;;;;6.20;5.60;;;23.20;53.80;;;;;;5070290;28;20901;-68
2023/06/05 09:11:42;;;;;;;8.67;6.00;;;23.00;53.80;;;;;;5070491;28;20462;-68
2023/06/05 09:14:12;;;;;;;8.13;5.87;;;22.80;55.20;;;;;;5070096;28;20439;-68
2023/06/05 09:16:42;;;;;;;6.30;5.77;;;23.00;57.90;;;;;;5070763;28;20534;-68
2023/06/05 09:19:13;;;;;;;6.43;5.90;;;23.30;55.30;;;;;;5070337;28;20471;-68
2023/06/05 09:21:48;;;;;;;6.43;5.73;;;23.40;53.50;;;;;;5070055;28;20528;-67
2023/06/05 09:24:17;;;;;;;9.70;5.80;;;23.50;54.00;;;;;;5069697;28;20443;-68
2023/06/05 09:26:51;;;;;;;6.47;5.87;;;23.60;53.90;;;;;;5070145;28;20438;-69
2023/06/05 09:29:24;;;;;;;8.53;5.87;;;23.60;53.10;;;;;;5069836;28;20451;-67
2023/06/05 09:31:53;;;;;;;6.80;6.13;;;23.50;55.10;;;;;;5070012;28;20431;-68
2023/06/05 09:34:23;;;;;;;6.73;5.70;;;23.50;52.50;;;;;;5069527;28;21011;-67
2023/06/05 09:36:52;;;;;;;6.70;5.60;;;23.80;53.20;;;;;;5070300;28;20526;-66
2023/06/05 09:39:21;;;;;;;6.47;5.97;;;23.80;52.80;;;;;;5069823;28;20465;-68
2023/06/05 09:41:51;;;;;;;6.20;5.70;;;23.80;54.00;;;;;;5070050;28;20560;-68
2023/06/05 09:44:19;;;;;;;6.80;6.10;;;24.00;53.40;;;;;;5069946;28;20451;-68
2023/06/05 09:46:55;;;;;;;7.37;5.97;;;24.40;55.30;;;;;;5070012;28;20470;-68
2023/06/05 09:49:27;;;;;;;6.97;6.20;;;24.70;53.60;;;;;;5069982;28;20518;-69
2023/06/05 09:51:57;;;;;;;6.13;5.47;;;25.20;50.90;;;;;;5069894;28;20435;-69
2023/06/05 09:54:27;;;;;;;6.37;5.87;;;25.60;49.70;;;;;;5069627;28;20485;-68
2023/06/05 09:56:59;;;;;;;6.27;5.63;;;25.50;49.10;;;;;;5069701;28;20440;-69
2023/06/05 09:59:31;;;;;;;6.23;5.63;;;25.80;50.30;;;;;;5069530;28;20912;-68
2023/06/05 10:02:01;;;;;;;7.13;6.43;;;26.70;48.70;;;;;;5069988;28;20478;-67
2023/06/05 10:04:34;;;;;;;5.70;5.20;;;27.30;44.30;;;;;;5069438;28;20495;-67
2023/06/05 10:07:02;;;;;;;6.50;6.00;;;27.30;44.80;;;;;;5069579;28;20435;-67
2023/06/05 10:09:32;;;;;;;5.43;4.93;;;27.30;43.20;;;;;;5069768;28;20470;-69
2023/06/05 10:12:01;;;;;;;6.00;5.30;;;27.00;45.20;;;;;;5069384;28;20849;-68
2023/06/05 10:14:29;;;;;;;6.70;4.80;;;27.40;43.70;;;;;;5069463;28;20439;-68
2023/06/05 10:16:59;;;;;;;5.20;4.70;;;26.60;43.30;;;;;;5069675;28;21101;-68
2023/06/05 10:19:28;;;;;;;5.93;5.43;;;26.00;41.70;;;;;;5069540;28;20541;-68
2023/06/05 10:21:57;;;;;;;5.40;4.90;;;25.50;40.90;;;;;;5069475;28;20489;-68
2023/06/05 10:24:29;;;;;;;7.93;4.70;;;25.90;43.40;;;;;;5069264;28;20624;-68
2023/06/05 10:27:25;;;;;;;5.80;4.73;;;27.10;39.30;;;;;;5069697;28;20993;-68
2023/06/05 10:30:21;;;;;;;4.77;3.87;;;27.20;39.70;;;;;;5069532;28;20459;-68
2023/06/05 10:33:09;;;;;;;5.30;4.60;;;26.30;37.60;;;;;;5035708;28;20467;-67
2023/06/05 10:35:48;;;;;;;4.73;4.33;;;25.60;39.10;;;;;;5069548;28;21247;-67
2023/06/05 10:38:20;;;;;;;5.90;3.93;;;26.30;38.60;;;;;;5069460;28;20463;-67
2023/06/05 10:40:52;;;;;;;4.57;3.90;;;26.80;37.30;;;;;;5069212;28;20518;-68
2023/06/05 10:43:31;;;;;;;4.43;4.03;;;26.90;36.90;;;;;;5068979;28;20439;-68
2023/06/05 10:46:01;;;;;;;4.70;4.10;;;27.80;36.10;;;;;;5069407;28;20434;-68
2023/06/05 10:49:08;;;;;;;5.33;3.83;;;28.40;34.40;;;;;;5069153;28;20439;-68
2023/06/05 10:51:39;;;;;;;9.63;4.23;;;28.40;33.20;;;;;;5069146;28;20455;-67
2023/06/05 10:54:10;;;;;;;5.90;4.03;;;28.30;36.50;;;;;;5068891;28;20449;-69
2023/06/05 10:56:59;;;;;;;4.30;4.00;;;28.80;38.10;;;;;;5069379;28;20956;-68
2023/06/05 10:59:29;;;;;;;4.40;4.00;;;29.90;33.00;;;;;;5069055;28;20537;-67
2023/06/05 11:02:27;;;;;;;3.83;3.53;;;29.80;32.80;;;;;;5070073;28;20573;-66
2023/06/05 11:05:13;;;;;;;4.90;3.80;;;29.30;31.10;;;;;;5010404;28;20461;-68
2023/06/05 11:07:45;;;;;;;4.47;4.10;;;28.70;32.00;;;;;;5066549;28;20466;-66
2023/06/05 11:10:21;;;;;;;4.93;4.07;;;28.00;31.90;;;;;;5072694;28;20901;-67
2023/06/05 11:13:01;;;;;;;4.73;4.17;;;28.00;33.70;;;;;;5072496;28;20875;-69
2023/06/05 11:15:37;;;;;;;4.07;3.60;;;28.60;35.30;;;;;;5072562;28;20435;-66
2023/06/05 11:18:31;;;;;;;4.17;3.67;;;29.60;33.90;;;;;;5072387;28;20474;-67
2023/06/05 11:21:00;;;;;;;4.33;4.00;;;30.80;31.90;;;;;;5072632;28;20531;-68
2023/06/05 11:23:29;;;;;;;4.40;4.00;;;30.80;29.50;;;;;;5071888;28;20933;-67
2023/06/05 11:26:14;;;;;;;7.50;3.67;;;29.70;30.40;;;;;;5072464;28;20470;-69
2023/06/05 11:28:45;;;;;;;4.60;4.20;;;29.20;31.30;;;;;;5071973;28;20888;-67
2023/06/05 11:31:13;;;;;;;4.77;4.37;;;29.00;31.20;;;;;;5072151;28;20435;-67
2023/06/05 11:33:41;;;;;;;5.93;4.30;;;28.80;30.00;;;;;;5072187;28;20543;-67
2023/06/05 11:36:09;;;;;;;4.47;4.13;;;28.60;32.10;;;;;;5072296;28;20496;-66
2023/06/05 11:38:38;;;;;;;5.97;4.40;;;28.90;31.00;;;;;;5072294;28;20491;-67
2023/06/05 11:41:10;;;;;;;4.80;4.27;;;29.20;31.30;;;;;;5072224;28;20564;-68
2023/06/05 11:43:44;;;;;;;5.60;5.10;;;29.40;30.50;;;;;;5071870;28;20474;-67
2023/06/05 11:46:35;;;;;;;5.37;4.87;;;29.40;31.00;;;;;;5072295;28;20443;-67
2023/06/05 11:49:07;;;;;;;6.90;4.70;;;29.40;30.30;;;;;;5072275;28;20459;-68
2023/06/05 11:51:37;;;;;;;4.90;4.37;;;28.90;32.60;;;;;;5072431;28;20447;-66
2023/06/05 11:54:07;;;;;;;7.07;4.53;;;27.60;33.70;;;;;;5072121;28;20461;-67
2023/06/05 11:56:45;;;;;;;4.93;4.47;;;27.10;33.80;;;;;;5072943;28;20443;-67
2023/06/05 11:59:13;;;;;;;5.50;5.00;;;27.50;36.40;;;;;;5072833;28;20466;-67
2023/06/05 12:01:45;;;;;;;6.53;4.50;;;28.30;32.60;;;;;;5072492;28;20481;-67
2023/06/05 12:04:14;;;;;;;6.50;4.47;;;28.60;31.00;;;;;;5072215;28;20443;-68
2023/06/05 12:06:47;;;;;;;5.47;5.07;;;29.20;33.20;;;;;;5072476;28;20435;-67
2023/06/05 12:09:16;;;;;;;8.50;5.40;;;30.00;30.00;;;;;;5072492;28;20491;-68
2023/06/05 12:11:48;;;;;;;5.10;4.23;;;29.90;29.50;;;;;;5071659;28;20435;-67
2023/06/05 12:14:31;;;;;;;4.90;4.50;;;29.90;29.30;;;;;;5071314;28;20439;-67
2023/06/05 12:16:59;;;;;;;4.60;4.20;;;30.20;29.30;;;;;;5071242;28;20530;-67
2023/06/05 12:19:28;;;;;;;5.00;4.57;;;30.00;30.20;;;;;;5071347;28;20472;-68
2023/06/05 12:22:04;;;;;;;4.70;4.30;;;30.30;32.50;;;;;;5071073;28;20557;-68
2023/06/05 12:24:32;;;;;;;5.03;4.63;;;31.60;30.50;;;;;;5071052;28;20446;-68
2023/06/05 12:27:04;;;;;;;5.00;4.60;;;32.90;30.30;;;;;;5071094;28;20512;-68
2023/06/05 12:29:33;;;;;;;5.93;5.43;;;33.90;30.60;;;;;;5070969;28;20462;-68
2023/06/05 12:32:02;;;;;;;6.57;5.33;;;34.60;28.40;;;;;;5071086;28;20500;-66
2023/06/05 12:34:40;;;;;;;7.93;5.37;;;34.00;26.20;;;;;;5070903;28;20836;-68
2023/06/05 12:37:27;;;;;;;5.20;4.70;;;33.10;27.60;;;;;;5070873;28;20956;-68
2023/06/05 12:39:55;;;;;;;5.47;5.07;;;33.20;29.00;;;;;;5070812;28;21007;-68
2023/06/05 12:42:25;;;;;;;6.10;5.60;;;34.20;27.00;;;;;;5070524;28;20508;-67
2023/06/05 12:44:53;;;;;;;5.50;5.00;;;33.90;25.50;;;;;;5071003;28;20512;-67
2023/06/05 12:47:22;;;;;;;5.17;4.67;;;32.60;26.30;;;;;;5070724;28;20447;-67
2023/06/05 12:49:50;;;;;;;6.27;5.13;;;31.70;26.70;;;;;;5070837;28;20463;-67
2023/06/05 12:52:25;;;;;;;5.80;5.30;;;31.70;27.40;;;;;;5070828;28;20454;-67
2023/06/05 12:54:53;;;;;;;4.97;4.57;;;32.30;26.80;;;;;;5070624;28;20477;-67
2023/06/05 12:57:21;;;;;;;6.20;5.70;;;32.60;27.00;;;;;;5070495;28;20451;-67
2023/06/05 12:59:53;;;;;;;5.60;5.10;;;33.00;26.00;;;;;;5070446;28;20459;-67
2023/06/05 13:02:21;;;;;;;5.90;5.23;;;33.10;25.90;;;;;;5070302;28;20474;-68
2023/06/05 13:04:49;;;;;;;6.83;4.80;;;31.10;27.00;;;;;;5070264;28;20960;-67